createdAt,value
2019-04-23T00:06:00.527Z,38.70
2019-04-23T00:08:50.139Z,38.70
2019-04-23T00:14:23.914Z,38.90
2019-04-23T00:19:49.443Z,39.10
2019-04-23T00:22:49.656Z,39.10
2019-04-23T00:28:45.566Z,39.20
2019-04-23T00:31:29.560Z,39.40
2019-04-23T00:34:09.295Z,39.50
2019-04-23T00:37:01.836Z,39.40
2019-04-23T00:39:46.858Z,39.70
2019-04-23T00:42:42.771Z,39.80
2019-04-23T00:45:39.865Z,39.90
2019-04-23T00:48:31.113Z,40.00
2019-04-23T00:51:02.285Z,40.20
2019-04-23T00:53:51.427Z,40.60
2019-04-23T00:59:26.850Z,40.70
2019-04-23T01:02:31.135Z,40.70
2019-04-23T01:05:05.170Z,41.00
2019-04-23T01:07:47.563Z,41.20
2019-04-23T01:14:11.524Z,41.50
2019-04-23T01:16:48.406Z,41.60
2019-04-23T01:22:38.020Z,41.90
2019-04-23T01:28:49.674Z,42.20
2019-04-23T01:31:34.861Z,42.40
2019-04-23T01:34:26.046Z,42.60
2019-04-23T01:37:15.519Z,42.60
2019-04-23T01:39:52.803Z,42.60
2019-04-23T01:42:40.683Z,42.70
2019-04-23T01:45:24.265Z,42.80
2019-04-23T01:48:05.202Z,43.10
2019-04-23T01:53:51.557Z,43.20
2019-04-23T01:57:16.609Z,43.30
2019-04-23T02:00:18.244Z,43.50
2019-04-23T02:05:55.538Z,44.20
2019-04-23T02:08:45.737Z,43.90
2019-04-23T02:11:35.652Z,44.20
2019-04-23T02:14:20.820Z,44.40
2019-04-23T02:17:10.200Z,44.40
2019-04-23T02:20:02.323Z,44.60
2019-04-23T02:25:53.807Z,44.50
2019-04-23T02:28:54.585Z,44.80
2019-04-23T02:34:52.648Z,45.10
2019-04-23T02:37:34.711Z,45.40
2019-04-23T02:40:23.366Z,45.50
2019-04-23T02:43:09.248Z,45.50
2019-04-23T02:46:04.365Z,45.50
2019-04-23T02:51:17.941Z,45.80
2019-04-23T03:02:58.744Z,46.00
2019-04-23T03:05:24.951Z,46.20
2019-04-23T03:11:08.144Z,47.30
2019-04-23T03:14:03.629Z,47.90
2019-04-23T03:19:58.554Z,48.50
2019-04-23T03:26:11.043Z,48.20
2019-04-23T03:40:18.730Z,48.60
2019-04-23T03:43:14.643Z,49.30
2019-04-23T03:46:00.910Z,49.40
2019-04-23T03:49:07.678Z,49.20
2019-04-23T03:51:17.221Z,50.00
2019-04-23T03:54:21.762Z,50.90
2019-04-23T03:57:06.006Z,51.70
2019-04-23T04:05:20.559Z,54.70
2019-04-23T04:08:12.088Z,55.10
2019-04-23T04:19:06.521Z,55.50
2019-04-23T04:22:16.346Z,56.40
2019-04-23T04:27:41.477Z,57.60
2019-04-23T04:30:22.190Z,57.80
2019-04-23T04:36:32.628Z,58.50
2019-04-23T04:39:26.878Z,58.60
2019-04-23T04:42:10.310Z,58.90
2019-04-23T04:45:23.239Z,58.90
2019-04-23T04:48:19.689Z,59.20
2019-04-23T04:51:00.462Z,59.70
2019-04-23T04:54:00.901Z,60.30
2019-04-23T04:59:35.152Z,61.90
2019-04-23T05:02:39.622Z,62.60
2019-04-23T05:05:31.333Z,63.30
2019-04-23T05:08:05.062Z,63.70
2019-04-23T05:16:09.638Z,62.80
2019-04-23T05:22:36.330Z,62.90
2019-04-23T05:25:17.506Z,62.90
2019-04-23T05:28:28.505Z,63.50
2019-04-23T05:31:02.364Z,64.00
2019-04-23T05:33:57.259Z,64.50
2019-04-23T05:36:41.498Z,64.90
2019-04-23T05:39:30.943Z,65.40
2019-04-23T05:45:13.954Z,65.00
2019-04-23T05:50:50.747Z,65.50
2019-04-23T05:53:33.038Z,65.90
2019-04-23T05:56:20.564Z,66.10
2019-04-23T06:02:13.260Z,66.00
2019-04-23T06:05:04.289Z,65.60
2019-04-23T06:07:49.351Z,65.00
2019-04-23T06:10:19.808Z,64.70
2019-04-23T06:13:22.509Z,65.00
2019-04-23T06:16:13.747Z,64.60
2019-04-23T06:19:02.863Z,64.50
2019-04-23T06:21:57.546Z,64.60
2019-04-23T06:27:22.069Z,64.40
2019-04-23T06:30:01.702Z,63.20
2019-04-23T06:32:52.277Z,62.30
2019-04-23T06:35:41.288Z,61.70
2019-04-23T06:38:41.038Z,61.40
2019-04-23T06:44:15.975Z,60.00
2019-04-23T06:47:30.891Z,58.70
2019-04-23T06:50:36.575Z,57.80
2019-04-23T06:52:55.815Z,57.40
2019-04-23T06:55:50.710Z,57.10
2019-04-23T07:01:17.633Z,56.30
2019-04-23T07:04:18.090Z,55.90
2019-04-23T07:07:36.564Z,56.00
2019-04-23T07:10:11.535Z,55.80
2019-04-23T07:15:42.368Z,55.80
2019-04-23T07:18:24.327Z,55.60
2019-04-23T07:21:17.802Z,55.40
2019-04-23T07:26:45.042Z,55.00
2019-04-23T07:29:38.989Z,54.90
2019-04-23T07:32:35.868Z,54.90
2019-04-23T07:35:25.718Z,54.60
2019-04-23T07:45:02.330Z,54.20
2019-04-23T07:48:10.618Z,53.80
2019-04-23T07:53:39.909Z,53.50
2019-04-23T07:56:42.240Z,53.30
2019-04-23T07:59:22.756Z,53.20
2019-04-23T08:02:06.112Z,53.30
2019-04-23T08:04:54.379Z,53.50
2019-04-23T08:07:37.793Z,52.90
2019-04-23T08:10:28.734Z,52.80
2019-04-23T08:13:37.940Z,52.70
2019-04-23T08:16:19.667Z,52.50
2019-04-23T08:19:07.768Z,52.60
2019-04-23T08:21:58.278Z,52.50
2019-04-23T08:25:12.977Z,52.50
2019-04-23T08:28:35.471Z,52.00
2019-04-23T08:31:07.850Z,51.70
2019-04-23T08:33:57.344Z,52.00
2019-04-23T08:36:44.463Z,51.70
2019-04-23T08:39:26.915Z,51.50
2019-04-23T08:48:41.315Z,50.90
2019-04-23T08:54:27.941Z,50.60
2019-04-23T08:57:04.015Z,50.40
2019-04-23T09:02:54.091Z,49.80
2019-04-23T09:05:38.702Z,49.90
2019-04-23T09:16:35.965Z,49.20
2019-04-23T09:19:32.103Z,48.70
2019-04-23T09:22:14.202Z,48.40
2019-04-23T09:25:03.938Z,48.30
2019-04-23T09:27:39.967Z,47.90
2019-04-23T09:30:38.770Z,47.50
2019-04-23T09:37:35.320Z,47.50
2019-04-23T09:40:41.503Z,47.30
2019-04-23T09:47:58.501Z,46.20
2019-04-23T09:56:10.348Z,44.90
2019-04-23T09:59:03.011Z,44.90
2019-04-23T10:01:51.228Z,44.80
2019-04-23T10:04:16.978Z,44.50
2019-04-23T10:07:12.686Z,44.00
2019-04-23T10:09:53.619Z,43.70
2019-04-23T10:12:48.210Z,43.70
2019-04-23T10:15:44.724Z,43.90
2019-04-23T10:18:29.126Z,43.90
2019-04-23T10:21:15.321Z,44.00
2019-04-23T10:24:09.611Z,43.60
2019-04-23T10:27:04.134Z,43.40
2019-04-23T10:29:50.003Z,43.10
2019-04-23T10:32:45.649Z,42.80
2019-04-23T10:35:41.107Z,42.60
2019-04-23T10:38:20.239Z,42.40
2019-04-23T10:41:04.408Z,42.50
2019-04-23T10:43:56.168Z,42.00
2019-04-23T10:47:45.214Z,41.80
2019-04-23T10:54:36.115Z,41.80
2019-04-23T10:57:28.215Z,41.90
2019-04-23T11:00:08.811Z,41.90
2019-04-23T11:02:58.883Z,42.00
2019-04-23T11:05:53.799Z,41.80
2019-04-23T11:08:31.095Z,41.40
2019-04-23T11:11:23.957Z,41.20
2019-04-23T11:14:13.289Z,40.80
2019-04-23T11:16:57.225Z,41.20
2019-04-23T11:19:52.855Z,41.30
2019-04-23T11:34:11.025Z,41.20
2019-04-23T11:39:38.728Z,41.00
2019-04-23T11:42:32.315Z,41.40
2019-04-23T11:45:28.199Z,41.20
2019-04-23T11:48:52.206Z,41.50
2019-04-23T11:51:26.215Z,41.50
2019-04-23T11:53:54.627Z,40.90
2019-04-23T11:59:29.632Z,40.30
2019-04-23T12:02:32.797Z,40.30
2019-04-23T12:05:48.198Z,40.00
2019-04-23T12:09:26.383Z,39.40
2019-04-23T12:12:08.529Z,38.80
2019-04-23T12:15:05.775Z,38.30
2019-04-23T12:18:16.993Z,37.70
2019-04-23T12:33:03.223Z,35.80
2019-04-23T12:35:51.940Z,35.40
2019-04-23T12:39:05.396Z,34.90
2019-04-23T12:42:12.740Z,33.60
2019-04-23T12:53:23.858Z,32.00
2019-04-23T12:56:21.227Z,31.70
2019-04-23T12:58:40.098Z,31.50
2019-04-23T13:01:49.005Z,30.80
2019-04-23T13:04:45.493Z,30.60
2019-04-23T13:07:36.711Z,30.70
2019-04-23T13:10:11.972Z,30.20
2019-04-23T13:13:04.222Z,29.90
2019-04-23T13:15:39.924Z,29.50
2019-04-23T13:18:41.440Z,29.30
2019-04-23T13:21:46.694Z,29.50
2019-04-23T13:24:32.855Z,29.30
2019-04-23T13:27:29.047Z,29.40
2019-04-23T13:30:11.837Z,29.20
2019-04-23T13:34:08.990Z,29.00
2019-04-23T13:35:53.661Z,28.90
2019-04-23T13:38:36.297Z,28.70
2019-04-23T13:44:00.100Z,28.80
2019-04-23T13:47:17.885Z,28.90
2019-04-23T13:50:30.943Z,28.80
2019-04-23T13:55:39.135Z,28.60
2019-04-23T14:01:20.058Z,28.10
2019-04-23T14:04:26.287Z,28.10
2019-04-23T14:06:49.531Z,28.00
2019-04-23T14:12:41.780Z,27.90
2019-04-23T14:21:11.176Z,28.30
2019-04-23T14:24:02.949Z,27.90
2019-04-23T14:29:28.485Z,28.50
2019-04-23T14:32:29.070Z,28.90
2019-04-23T14:35:14.016Z,29.00
2019-04-23T14:38:02.376Z,28.70
2019-04-23T14:43:23.859Z,29.00
2019-04-23T14:52:10.477Z,30.00
2019-04-23T14:55:35.904Z,29.40
2019-04-23T14:57:52.970Z,29.70
2019-04-23T15:00:33.503Z,29.70
2019-04-23T15:03:39.915Z,29.90
2019-04-23T15:06:47.814Z,30.20
2019-04-23T15:15:02.330Z,31.10
2019-04-23T15:17:45.174Z,31.40
2019-04-23T15:23:51.485Z,31.50
2019-04-23T15:27:47.423Z,32.00
2019-04-23T15:29:20.032Z,32.40
2019-04-23T15:32:18.675Z,32.50
2019-04-23T15:35:16.530Z,32.60
2019-04-23T15:38:20.473Z,32.80
2019-04-23T15:40:53.962Z,33.20
2019-04-23T15:43:52.263Z,33.50
2019-04-23T15:52:17.038Z,34.30
2019-04-23T15:58:05.482Z,35.00
2019-04-23T16:00:31.110Z,35.20
2019-04-23T16:02:50.478Z,35.50
2019-04-23T16:05:44.731Z,35.60
2019-04-23T16:09:04.758Z,35.60
2019-04-23T16:14:35.659Z,36.20
2019-04-23T16:17:21.203Z,37.60
2019-04-23T16:23:35.574Z,37.20
2019-04-23T16:26:28.868Z,36.80
2019-04-23T16:32:08.285Z,36.60
2019-04-23T16:35:15.636Z,36.40
2019-04-23T16:41:12.843Z,35.50
2019-04-23T16:44:07.957Z,35.70
2019-04-23T16:49:42.062Z,36.40
2019-04-23T16:52:34.872Z,35.30
2019-04-23T16:55:24.133Z,35.00
2019-04-23T16:58:23.280Z,34.70
2019-04-23T17:01:05.919Z,34.80
2019-04-23T17:06:48.964Z,34.30
2019-04-23T17:12:06.391Z,34.40
2019-04-23T17:14:48.170Z,34.80
2019-04-23T17:17:30.911Z,34.30
2019-04-23T17:20:28.691Z,33.80
2019-04-23T17:23:22.242Z,33.60
2019-04-23T17:25:59.225Z,33.70
2019-04-23T17:28:39.493Z,33.00
2019-04-23T17:31:35.277Z,32.80
2019-04-23T17:34:23.546Z,33.30
2019-04-23T17:37:12.381Z,33.20
2019-04-23T17:43:13.530Z,33.30
2019-04-23T17:46:27.318Z,33.70
2019-04-23T17:49:16.874Z,34.00
2019-04-23T17:52:22.070Z,34.50
2019-04-23T17:55:13.339Z,34.70
2019-04-23T17:58:03.908Z,35.10
2019-04-23T18:01:03.897Z,35.40
2019-04-23T18:03:52.540Z,35.50
2019-04-23T18:06:37.411Z,35.70
2019-04-23T18:09:26.222Z,36.30
2019-04-23T18:12:01.094Z,37.00
2019-04-23T18:14:40.354Z,39.00
2019-04-23T18:17:34.366Z,39.90
2019-04-23T18:24:23.321Z,41.10
2019-04-23T18:30:24.225Z,42.10
2019-04-23T18:36:29.699Z,42.70
2019-04-23T18:39:22.662Z,43.10
2019-04-23T18:42:25.745Z,43.20
2019-04-23T18:45:10.436Z,43.50
2019-04-23T18:47:52.014Z,44.30
2019-04-23T18:51:01.146Z,44.20
2019-04-23T18:53:57.354Z,44.60
2019-04-23T19:15:37.980Z,47.20
2019-04-23T19:18:45.167Z,47.10
2019-04-23T19:21:30.103Z,47.50
2019-04-23T19:24:04.732Z,47.10
2019-04-23T19:29:59.714Z,46.90
2019-04-23T19:33:29.857Z,46.60
2019-04-23T19:36:13.821Z,47.00
2019-04-23T19:38:56.065Z,46.90
2019-04-23T19:41:59.367Z,46.80
2019-04-23T19:44:24.480Z,46.70
2019-04-23T19:49:55.131Z,46.50
2019-04-23T19:55:36.339Z,46.80
2019-04-23T19:58:46.976Z,47.50
2019-04-23T20:12:46.540Z,49.00
2019-04-23T20:15:51.147Z,49.30
2019-04-23T20:18:40.209Z,49.30
2019-04-23T20:21:03.227Z,49.70
2019-04-23T20:26:41.324Z,52.00
2019-04-23T20:35:58.289Z,53.30
2019-04-23T20:41:32.949Z,53.90
2019-04-23T20:44:11.880Z,54.50
2019-04-23T20:52:33.930Z,55.60
2019-04-23T20:55:40.916Z,56.10
2019-04-23T20:58:59.640Z,56.60
2019-04-23T21:08:16.301Z,56.60
2019-04-23T21:10:51.116Z,56.70
2019-04-23T21:13:43.413Z,56.00
2019-04-23T21:16:05.042Z,55.50
2019-04-23T21:19:15.089Z,55.00
2019-04-23T21:22:12.215Z,55.30
2019-04-23T21:25:03.217Z,54.80
2019-04-23T21:27:57.225Z,54.30
2019-04-23T21:30:59.446Z,54.20
2019-04-23T21:34:06.122Z,54.10
2019-04-23T21:36:50.935Z,54.00
2019-04-23T21:40:33.814Z,54.10
2019-04-23T21:43:20.634Z,53.90
2019-04-23T21:46:28.118Z,53.90
2019-04-23T21:49:16.482Z,54.10
2019-04-23T21:54:49.169Z,54.00
2019-04-23T21:57:36.972Z,54.10
2019-04-23T22:00:19.008Z,54.10
2019-04-23T22:03:11.750Z,54.20
2019-04-23T22:08:44.112Z,54.30
2019-04-23T22:11:49.537Z,54.30
2019-04-23T22:14:21.714Z,54.30
2019-04-23T22:20:14.032Z,54.70
2019-04-23T22:23:00.896Z,54.80
2019-04-23T22:25:43.270Z,54.80
2019-04-23T22:28:17.974Z,54.90
2019-04-23T22:31:12.753Z,55.00
2019-04-23T22:34:06.266Z,55.00
2019-04-23T22:36:55.113Z,55.20
2019-04-23T22:39:36.339Z,55.20
2019-04-23T22:45:43.200Z,55.40
2019-04-23T22:48:13.897Z,55.40
2019-04-23T22:54:02.832Z,55.60
2019-04-23T22:56:43.964Z,55.80
2019-04-23T23:08:55.156Z,56.00
2019-04-23T23:11:22.614Z,56.30
2019-04-23T23:14:27.331Z,56.60
2019-04-23T23:20:11.731Z,56.80
2019-04-23T23:23:06.434Z,57.00
2019-04-23T23:33:48.998Z,58.50
2019-04-23T23:36:38.445Z,59.20
2019-04-23T23:42:09.756Z,60.00
2019-04-23T23:45:10.228Z,59.70
2019-04-23T23:51:39.779Z,60.70
2019-04-23T23:54:36.140Z,61.40
2019-04-23T23:57:21.522Z,62.30
